Time;durP1;ratioP1;P1;durP2;ratioP2;P2;SDS_P1;SDS_P2;PMS_P1;PMS_P2;Temp;Humidity;BMP_temperature;BMP_pressure;BME280_temperature;BME280_humidity;BME280_pressure;Samples;Min_cycle;Max_cycle;Signal;HPM_P1;HPM_P2
2023/03/27 00:00:43;;;;;;;7.95;2.22;;;5.90;91.90;;;;;;4998671;28;20034;-75
2023/03/27 00:03:10;;;;;;;12.15;2.10;;;5.90;91.90;;;;;;5002321;28;20433;-73
2023/03/27 00:05:36;;;;;;;20.30;3.47;;;5.90;92.00;;;;;;4997259;28;20027;-74
2023/03/27 00:08:03;;;;;;;20.17;3.70;;;5.90;92.00;;;;;;5001107;28;20025;-74
2023/03/27 00:10:38;;;;;;;16.23;2.40;;;5.90;92.10;;;;;;4993306;28;20815;-74
2023/03/27 00:13:05;;;;;;;11.10;2.25;;;5.80;92.30;;;;;;4991283;28;20014;-75
2023/03/27 00:15:35;;;;;;;7.22;2.47;;;5.80;92.20;;;;;;5001606;28;20049;-73
2023/03/27 00:18:04;;;;;;;9.97;2.77;;;5.70;92.20;;;;;;4992770;28;20044;-75
2023/03/27 00:20:36;;;;;;;12.95;2.55;;;5.70;92.30;;;;;;5002440;28;20026;-74
2023/03/27 00:23:09;;;;;;;11.38;2.28;;;5.70;92.30;;;;;;4989903;28;20432;-75
2023/03/27 00:25:34;;;;;;;12.75;2.83;;;5.60;92.40;;;;;;5002939;28;20157;-74
2023/03/27 00:28:01;;;;;;;13.57;2.88;;;5.60;92.50;;;;;;4997716;28;20113;-74
2023/03/27 00:30:28;;;;;;;10.30;2.55;;;5.60;92.50;;;;;;5004552;28;20025;-75
2023/03/27 00:32:55;;;;;;;11.98;2.47;;;5.60;92.50;;;;;;4989252;28;20077;-74
2023/03/27 00:35:23;;;;;;;12.73;3.63;;;5.60;92.60;;;;;;5002720;28;20188;-75
2023/03/27 00:37:49;;;;;;;8.98;2.90;;;5.60;92.70;;;;;;4987578;28;20088;-75
2023/03/27 00:40:18;;;;;;;12.05;2.00;;;5.60;92.70;;;;;;4991536;28;20030;-74
2023/03/27 00:42:47;;;;;;;6.63;2.30;;;5.60;92.70;;;;;;4998675;28;20029;-75
2023/03/27 00:45:18;;;;;;;13.57;2.20;;;5.60;93.00;;;;;;4991622;28;20034;-74
2023/03/27 00:47:46;;;;;;;10.85;2.63;;;5.60;92.90;;;;;;4990367;28;20504;-75
2023/03/27 00:50:21;;;;;;;9.70;2.28;;;5.60;92.90;;;;;;4997921;28;20488;-74
2023/03/27 00:52:53;;;;;;;21.60;3.58;;;5.60;92.90;;;;;;4995562;28;20102;-74
2023/03/27 00:55:19;;;;;;;23.65;4.32;;;5.60;92.90;;;;;;4996227;28;20046;-74
2023/03/27 00:57:50;;;;;;;14.10;2.92;;;5.60;92.90;;;;;;5004401;28;20025;-74
2023/03/27 01:00:18;;;;;;;11.65;3.78;;;5.60;92.90;;;;;;5004724;28;20765;-75
2023/03/27 01:02:47;;;;;;;15.68;3.70;;;5.60;92.90;;;;;;5003225;28;20023;-75
2023/03/27 01:05:14;;;;;;;19.90;3.65;;;5.60;93.10;;;;;;5001295;28;20041;-75
2023/03/27 01:07:42;;;;;;;17.40;2.80;;;5.60;93.10;;;;;;5006538;28;20057;-75
2023/03/27 01:10:08;;;;;;;15.77;2.85;;;5.60;93.40;;;;;;4992461;28;20025;-75
2023/03/27 01:12:44;;;;;;;12.85;3.17;;;5.50;93.20;;;;;;5006709;28;20049;-75
2023/03/27 01:15:37;;;;;;;12.95;2.85;;;5.50;93.30;;;;;;4994097;28;20042;-75
2023/03/27 01:18:12;;;;;;;9.82;2.22;;;5.40;93.30;;;;;;4991309;28;20050;-75
2023/03/27 01:21:04;;;;;;;25.45;5.75;;;5.40;93.40;;;;;;5000185;28;20101;-75
2023/03/27 01:23:36;;;;;;;13.43;2.28;;;5.40;93.50;;;;;;5004964;28;20033;-74
2023/03/27 01:26:27;;;;;;;13.15;2.20;;;5.40;93.50;;;;;;4999000;28;20022;-75
2023/03/27 01:29:06;;;;;;;9.25;2.50;;;5.30;93.60;;;;;;5004336;28;20076;-75
2023/03/27 01:32:08;;;;;;;15.20;2.75;;;5.30;93.70;;;;;;5003550;28;20049;-75
2023/03/27 01:35:11;;;;;;;12.75;2.75;;;5.30;93.80;;;;;;4990248;28;20138;-73
2023/03/27 01:37:59;;;;;;;9.98;2.20;;;5.20;93.80;;;;;;4989657;28;20030;-74
2023/03/27 01:40:31;;;;;;;11.68;2.30;;;5.20;93.80;;;;;;4997015;28;20034;-74
2023/03/27 01:43:03;;;;;;;11.30;2.22;;;5.20;94.00;;;;;;4995208;28;20019;-74
2023/03/27 01:45:45;;;;;;;13.38;2.35;;;5.20;94.10;;;;;;4994351;28;20033;-73
2023/03/27 01:48:25;;;;;;;10.65;2.17;;;5.20;94.20;;;;;;4996079;28;20030;-75
2023/03/27 01:50:57;;;;;;;7.30;2.10;;;5.10;94.20;;;;;;5000024;28;20037;-75
2023/03/27 01:53:36;;;;;;;11.00;2.47;;;5.20;94.30;;;;;;5004586;28;20057;-74
2023/03/27 01:56:25;;;;;;;9.63;2.70;;;5.20;94.40;;;;;;4991800;28;20066;-74
2023/03/27 01:59:02;;;;;;;9.40;2.30;;;5.20;94.50;;;;;;4991989;28;20503;-74
2023/03/27 02:01:43;;;;;;;24.67;3.35;;;5.20;94.60;;;;;;4996951;28;20037;-74
2023/03/27 02:04:15;;;;;;;8.38;2.00;;;5.20;94.60;;;;;;4992081;28;20038;-75
2023/03/27 02:06:45;;;;;;;10.32;2.42;;;5.30;94.60;;;;;;5005923;28;20069;-75
2023/03/27 02:09:25;;;;;;;12.50;3.08;;;5.30;94.70;;;;;;4985765;28;20038;-74
2023/03/27 02:12:26;;;;;;;16.90;2.53;;;5.20;94.90;;;;;;4990016;28;20428;-75
2023/03/27 02:14:55;;;;;;;13.88;3.92;;;5.20;95.30;;;;;;4988294;28;20104;-74
2023/03/27 02:17:25;;;;;;;10.10;2.97;;;5.20;95.90;;;;;;4990939;28;20054;-74
2023/03/27 02:20:15;;;;;;;8.10;2.50;;;5.20;95.70;;;;;;4990078;28;20029;-74
2023/03/27 02:22:42;;;;;;;7.55;2.10;;;5.20;95.80;;;;;;4990264;28;20027;-75
2023/03/27 02:25:32;;;;;;;7.57;2.30;;;5.20;95.70;;;;;;4990834;28;20030;-75
2023/03/27 02:28:09;;;;;;;8.73;1.98;;;5.20;95.90;;;;;;4982521;28;20029;-74
2023/03/27 02:30:39;;;;;;;13.35;2.88;;;5.20;95.70;;;;;;4988456;28;20034;-75
2023/03/27 02:33:13;;;;;;;12.63;2.67;;;5.20;95.70;;;;;;4984401;28;20109;-75
2023/03/27 02:35:47;;;;;;;12.82;3.20;;;5.30;95.50;;;;;;4989349;28;20085;-74
2023/03/27 02:38:22;;;;;;;10.88;2.80;;;5.30;95.50;;;;;;4990434;28;20030;-74
2023/03/27 02:41:08;;;;;;;17.88;2.50;;;5.30;95.50;;;;;;4990093;28;20014;-74
2023/03/27 02:43:37;;;;;;;11.70;3.10;;;5.30;95.40;;;;;;4990344;28;20021;-74
2023/03/27 02:46:19;;;;;;;18.33;2.35;;;5.40;95.40;;;;;;4989948;28;20488;-74
2023/03/27 02:48:50;;;;;;;10.77;2.88;;;5.40;95.30;;;;;;4988985;28;20033;-75
2023/03/27 02:51:29;;;;;;;6.35;1.65;;;5.40;95.20;;;;;;5004839;28;20378;-75
2023/03/27 02:54:07;;;;;;;8.30;2.63;;;5.40;95.20;;;;;;4989083;28;20030;-74
2023/03/27 02:56:40;;;;;;;9.55;1.73;;;5.40;95.20;;;;;;4988568;28;20144;-74
2023/03/27 02:59:17;;;;;;;12.50;1.98;;;5.40;95.10;;;;;;4989761;28;20033;-75
2023/03/27 03:01:44;;;;;;;15.85;2.35;;;5.40;95.20;;;;;;4988931;28;20030;-74
2023/03/27 03:04:19;;;;;;;9.13;2.63;;;5.40;95.20;;;;;;4989304;28;20022;-75
2023/03/27 03:06:45;;;;;;;9.77;2.58;;;5.40;95.20;;;;;;4989347;28;20026;-75
2023/03/27 03:09:13;;;;;;;11.82;2.00;;;5.40;95.20;;;;;;4988285;28;20026;-75
2023/03/27 03:11:46;;;;;;;8.90;1.92;;;5.30;95.20;;;;;;4989161;28;20114;-74
2023/03/27 03:14:12;;;;;;;8.63;1.77;;;5.30;95.30;;;;;;5004446;28;20108;-75
2023/03/27 03:16:38;;;;;;;11.43;2.72;;;5.30;95.30;;;;;;4989023;28;20068;-74
2023/03/27 03:19:03;;;;;;;9.13;2.03;;;5.30;95.40;;;;;;4988760;28;20022;-75
2023/03/27 03:21:30;;;;;;;11.65;2.00;;;5.20;95.40;;;;;;4989278;28;20025;-75
2023/03/27 03:23:56;;;;;;;8.18;1.60;;;5.20;95.40;;;;;;4988007;28;20019;-74
2023/03/27 03:26:22;;;;;;;7.80;2.05;;;5.20;95.40;;;;;;4996549;28;20031;-73
2023/03/27 03:28:48;;;;;;;4.90;2.38;;;5.20;95.80;;;;;;4991473;28;20100;-74
2023/03/27 03:31:15;;;;;;;9.52;2.00;;;5.10;95.50;;;;;;4989162;28;20054;-74
2023/03/27 03:33:41;;;;;;;7.55;1.95;;;5.10;95.60;;;;;;4988678;28;20562;-75
2023/03/27 03:36:07;;;;;;;13.02;2.28;;;5.10;95.70;;;;;;4988775;28;20073;-74
2023/03/27 03:38:34;;;;;;;5.47;1.38;;;5.00;95.80;;;;;;4985900;28;20485;-74
2023/03/27 03:41:00;;;;;;;7.88;2.28;;;5.00;96.10;;;;;;4989004;28;20106;-73
2023/03/27 03:43:28;;;;;;;11.23;1.98;;;4.90;96.20;;;;;;4988852;28;20022;-74
2023/03/27 03:45:54;;;;;;;6.10;1.92;;;4.90;96.40;;;;;;4988426;28;20022;-75
2023/03/27 03:48:21;;;;;;;6.03;1.38;;;5.00;96.50;;;;;;4990158;28;20802;-74
2023/03/27 03:50:48;;;;;;;9.25;1.60;;;5.00;96.50;;;;;;4989010;28;20394;-74
2023/03/27 03:53:15;;;;;;;4.57;1.30;;;5.00;96.50;;;;;;4990215;28;20503;-74
2023/03/27 03:55:42;;;;;;;4.78;1.33;;;5.00;96.90;;;;;;4988512;28;20042;-73
2023/03/27 03:58:08;;;;;;;3.17;1.30;;;5.00;96.60;;;;;;4993338;28;20080;-74
2023/03/27 04:00:39;;;;;;;6.97;1.50;;;5.00;96.60;;;;;;4989544;28;20425;-74
2023/03/27 04:03:07;;;;;;;6.70;1.13;;;5.10;97.50;;;;;;4990410;28;20038;-74
2023/03/27 04:05:36;;;;;;;6.88;1.77;;;5.20;98.70;;;;;;4989133;28;20011;-73
2023/03/27 04:08:06;;;;;;;2.63;0.80;;;5.10;98.40;;;;;;4990967;28;20026;-74
2023/03/27 04:10:32;;;;;;;4.70;1.17;;;5.10;99.00;;;;;;4985359;28;20036;-73
2023/03/27 04:12:58;;;;;;;3.55;1.15;;;5.10;98.90;;;;;;4991082;28;20121;-73
2023/03/27 04:15:24;;;;;;;5.53;1.10;;;5.20;99.10;;;;;;4988764;28;20061;-72
2023/03/27 04:17:50;;;;;;;4.70;1.10;;;5.20;99.20;;;;;;4990003;28;20144;-73
2023/03/27 04:20:16;;;;;;;4.10;1.13;;;5.20;99.90;;;;;;4989577;28;20178;-73
2023/03/27 04:22:46;;;;;;;2.55;1.23;;;5.10;99.50;;;;;;4989746;28;20458;-73
2023/03/27 04:25:13;;;;;;;;;;;5.00;99.00;;;;;;4991200;28;20030;-73
2023/03/27 04:27:39;;;;;;;4.88;1.30;;;5.10;98.60;;;;;;4990288;28;19917;-73
2023/03/27 04:30:09;;;;;;;4.95;1.55;;;5.10;98.00;;;;;;4989355;28;20493;-74
2023/03/27 04:32:35;;;;;;;4.28;1.42;;;5.10;97.70;;;;;;4995288;28;20022;-73
2023/03/27 04:35:02;;;;;;;3.70;1.45;;;5.10;97.40;;;;;;5003528;28;20471;-75
2023/03/27 04:37:28;;;;;;;5.57;1.45;;;5.20;97.20;;;;;;5001766;28;20037;-74
2023/03/27 04:39:53;;;;;;;6.95;1.40;;;5.10;97.00;;;;;;5006253;28;20026;-73
2023/03/27 04:42:22;;;;;;;5.63;1.73;;;5.10;97.00;;;;;;4997860;28;20029;-74
2023/03/27 04:44:51;;;;;;;14.40;6.15;;;5.10;97.00;;;;;;4992471;28;20026;-73
2023/03/27 04:47:17;;;;;;;8.32;3.00;;;5.10;97.00;;;;;;4986043;28;20030;-74
2023/03/27 04:49:49;;;;;;;8.13;3.80;;;5.00;97.00;;;;;;4993806;28;20029;-75
2023/03/27 04:52:16;;;;;;;5.43;1.98;;;5.00;97.10;;;;;;4993527;28;20026;-74
2023/03/27 04:54:42;;;;;;;6.85;2.00;;;5.00;97.10;;;;;;4994003;28;20042;-74
2023/03/27 04:57:10;;;;;;;3.85;1.48;;;4.90;97.00;;;;;;4992353;28;20390;-74
2023/03/27 04:59:36;;;;;;;4.47;1.20;;;5.00;97.00;;;;;;4997070;28;20029;-75
2023/03/27 05:02:02;;;;;;;4.55;1.45;;;4.90;97.00;;;;;;4992124;28;20118;-74
2023/03/27 05:04:29;;;;;;;3.95;1.30;;;4.90;97.00;;;;;;4992303;28;20034;-74
2023/03/27 05:06:55;;;;;;;4.78;1.30;;;4.80;97.00;;;;;;4993614;28;20015;-74
2023/03/27 05:09:22;;;;;;;4.25;1.15;;;4.80;97.00;;;;;;4994407;28;20027;-75
2023/03/27 05:11:49;;;;;;;7.18;1.88;;;4.70;97.10;;;;;;4991166;28;20026;-74
2023/03/27 05:14:22;;;;;;;7.72;2.08;;;4.70;97.10;;;;;;4992027;28;20022;-74
2023/03/27 05:16:49;;;;;;;6.18;1.50;;;4.70;97.20;;;;;;4995887;28;20060;-75
2023/03/27 05:19:15;;;;;;;4.43;1.88;;;4.70;97.20;;;;;;4995548;28;20093;-73
2023/03/27 05:21:41;;;;;;;4.50;1.50;;;4.70;97.20;;;;;;4992239;28;20035;-74
2023/03/27 05:24:08;;;;;;;2.97;1.20;;;4.60;97.20;;;;;;4989603;28;20039;-74
2023/03/27 05:26:34;;;;;;;5.20;1.30;;;4.60;97.30;;;;;;4993953;28;20492;-73
2023/03/27 05:29:00;;;;;;;7.97;3.05;;;4.60;97.30;;;;;;4997528;28;20029;-74
2023/03/27 05:31:27;;;;;;;5.00;2.20;;;4.60;97.40;;;;;;4996337;28;20101;-74
2023/03/27 05:33:52;;;;;;;3.85;1.30;;;4.60;97.40;;;;;;4994889;28;20018;-74
2023/03/27 05:36:21;;;;;;;9.57;3.28;;;4.60;97.40;;;;;;4998351;28;20040;-73
2023/03/27 05:38:47;;;;;;;5.85;1.70;;;4.70;97.50;;;;;;4993555;28;20085;-74
2023/03/27 05:41:14;;;;;;;4.35;2.22;;;4.60;97.50;;;;;;4994895;28;20133;-74
2023/03/27 05:43:41;;;;;;;6.10;2.22;;;4.70;97.70;;;;;;4990052;28;20385;-75
2023/03/27 05:46:07;;;;;;;5.25;2.22;;;4.70;97.80;;;;;;4992003;28;20397;-75
2023/03/27 05:48:33;;;;;;;6.05;1.83;;;4.70;97.90;;;;;;4995634;28;20030;-73
2023/03/27 05:50:59;;;;;;;8.38;1.92;;;4.70;98.00;;;;;;5000482;28;20092;-74
2023/03/27 05:53:25;;;;;;;4.63;1.95;;;4.60;98.10;;;;;;4998776;28;20076;-73
2023/03/27 05:55:51;;;;;;;4.68;1.67;;;4.60;98.20;;;;;;5002815;28;20034;-73
2023/03/27 05:58:17;;;;;;;6.85;2.13;;;4.60;98.30;;;;;;5000788;28;20546;-73
2023/03/27 06:00:43;;;;;;;4.00;1.95;;;4.60;98.30;;;;;;4997984;28;20030;-74
2023/03/27 06:03:12;;;;;;;7.78;2.15;;;4.60;98.40;;;;;;4995860;28;20037;-74
2023/03/27 06:05:40;;;;;;;6.88;2.60;;;4.60;98.50;;;;;;5005719;28;20018;-74
2023/03/27 06:08:10;;;;;;;6.13;2.53;;;4.60;98.50;;;;;;5003134;28;20036;-74
2023/03/27 06:10:38;;;;;;;6.45;2.63;;;4.60;98.60;;;;;;4990431;28;20034;-74
2023/03/27 06:13:07;;;;;;;7.35;2.88;;;4.70;98.70;;;;;;5003842;28;20033;-74
2023/03/27 06:15:35;;;;;;;6.65;3.15;;;4.70;98.80;;;;;;4990601;28;20376;-74
2023/03/27 06:18:01;;;;;;;8.93;3.55;;;4.70;98.80;;;;;;5003482;28;20644;-74
2023/03/27 06:20:27;;;;;;;8.85;2.63;;;4.80;98.90;;;;;;4992129;28;20064;-74
2023/03/27 06:22:55;;;;;;;6.55;2.10;;;4.90;99.00;;;;;;5001164;28;20114;-74
2023/03/27 06:25:23;;;;;;;9.02;3.08;;;5.00;99.00;;;;;;4994016;28;20026;-74
2023/03/27 06:27:50;;;;;;;7.32;2.30;;;5.10;98.90;;;;;;5003469;28;20400;-74
2023/03/27 06:30:19;;;;;;;6.38;2.40;;;5.20;98.70;;;;;;4995929;28;20026;-74
2023/03/27 06:32:45;;;;;;;5.43;2.42;;;5.20;98.50;;;;;;5000761;28;20027;-73
2023/03/27 06:35:13;;;;;;;10.27;2.35;;;5.20;98.40;;;;;;4996935;28;20072;-73
2023/03/27 06:37:45;;;;;;;10.38;2.53;;;5.30;98.50;;;;;;4991789;28;20568;-74
2023/03/27 06:40:21;;;;;;;8.88;2.85;;;5.40;98.40;;;;;;5003167;28;20391;-75
2023/03/27 06:43:01;;;;;;;14.90;4.07;;;5.50;98.20;;;;;;5004600;28;20014;-73
2023/03/27 06:45:33;;;;;;;5.60;2.22;;;5.60;98.10;;;;;;4990719;28;20089;-75
2023/03/27 06:48:01;;;;;;;8.40;2.53;;;5.70;97.70;;;;;;4991962;28;20089;-74
2023/03/27 06:50:29;;;;;;;8.98;3.22;;;5.70;97.50;;;;;;4991894;28;20129;-74
2023/03/27 06:52:58;;;;;;;8.32;2.00;;;5.80;97.50;;;;;;4992362;28;20018;-75
2023/03/27 06:55:26;;;;;;;9.23;2.30;;;5.80;97.20;;;;;;4995601;28;20049;-74
2023/03/27 06:57:55;;;;;;;10.90;2.30;;;5.90;97.20;;;;;;4994201;28;20469;-74
2023/03/27 07:00:24;;;;;;;8.32;2.20;;;5.90;97.00;;;;;;4989335;28;20109;-73
2023/03/27 07:02:58;;;;;;;9.25;2.80;;;5.90;96.60;;;;;;4988008;28;20026;-76
2023/03/27 07:05:25;;;;;;;8.20;2.60;;;5.70;96.50;;;;;;4986400;28;20132;-74
2023/03/27 07:07:53;;;;;;;12.32;3.28;;;5.70;97.00;;;;;;4989641;28;20022;-73
2023/03/27 07:10:19;;;;;;;13.77;2.75;;;5.80;97.20;;;;;;4987822;28;20029;-74
2023/03/27 07:12:46;;;;;;;9.75;2.50;;;5.90;97.20;;;;;;4987223;28;20089;-73
2023/03/27 07:15:12;;;;;;;8.02;2.28;;;6.10;97.00;;;;;;4988079;28;20133;-75
2023/03/27 07:17:43;;;;;;;8.45;2.88;;;6.20;96.60;;;;;;4987306;28;20060;-74
2023/03/27 07:20:11;;;;;;;6.10;2.67;;;6.30;96.80;;;;;;4987306;28;20034;-75
2023/03/27 07:22:40;;;;;;;15.95;3.33;;;6.50;96.60;;;;;;4988091;28;20026;-74
2023/03/27 07:25:06;;;;;;;10.02;2.60;;;6.70;96.50;;;;;;4988010;28;20037;-74
2023/03/27 07:27:32;;;;;;;17.20;2.85;;;6.80;95.70;;;;;;4988733;28;20032;-74
2023/03/27 07:30:00;;;;;;;7.38;2.80;;;6.90;95.60;;;;;;4989342;28;20153;-74
2023/03/27 07:32:28;;;;;;;13.27;2.88;;;7.00;95.40;;;;;;4989348;28;20029;-75
2023/03/27 07:34:55;;;;;;;10.98;3.42;;;7.20;94.80;;;;;;4989284;28;20434;-73
2023/03/27 07:37:24;;;;;;;8.10;2.65;;;7.30;95.10;;;;;;4988121;28;20154;-75
2023/03/27 07:39:50;;;;;;;10.50;2.80;;;7.50;95.10;;;;;;4985861;28;20385;-74
2023/03/27 07:42:16;;;;;;;13.20;3.08;;;7.50;93.80;;;;;;4984582;28;20265;-74
2023/03/27 07:44:41;;;;;;;11.18;2.75;;;7.60;93.70;;;;;;4984365;28;20030;-75
2023/03/27 07:47:07;;;;;;;9.55;3.55;;;7.80;93.60;;;;;;4982825;28;20189;-73
2023/03/27 07:49:33;;;;;;;9.27;2.83;;;7.90;93.20;;;;;;4985643;28;20068;-75
2023/03/27 07:51:59;;;;;;;8.40;2.40;;;7.90;92.80;;;;;;4985952;28;20038;-75
2023/03/27 07:54:25;;;;;;;14.38;2.88;;;8.10;92.60;;;;;;4985923;28;20044;-73
2023/03/27 07:56:52;;;;;;;13.70;2.45;;;8.20;92.60;;;;;;4987686;28;20026;-74
2023/03/27 07:59:19;;;;;;;9.73;2.08;;;8.20;91.90;;;;;;4987273;28;20026;-73
2023/03/27 08:01:47;;;;;;;15.05;3.15;;;8.30;91.80;;;;;;4983823;28;20019;-73
2023/03/27 08:04:14;;;;;;;12.75;2.63;;;8.30;91.50;;;;;;4989422;28;20167;-73
2023/03/27 08:06:39;;;;;;;13.23;2.97;;;8.40;91.40;;;;;;4985253;28;20118;-73
2023/03/27 08:09:05;;;;;;;13.75;2.60;;;8.60;91.40;;;;;;4989243;28;20109;-73
2023/03/27 08:11:31;;;;;;;15.02;2.50;;;8.80;91.10;;;;;;5004025;28;20129;-73
2023/03/27 08:13:57;;;;;;;14.02;2.63;;;8.90;91.50;;;;;;4989621;28;20097;-76
2023/03/27 08:16:26;;;;;;;6.85;2.85;;;9.00;91.00;;;;;;4986786;28;20046;-75
2023/03/27 08:18:52;;;;;;;15.30;3.15;;;9.10;90.30;;;;;;4987157;28;20029;-73
2023/03/27 08:21:18;;;;;;;10.32;2.38;;;9.20;90.30;;;;;;4985912;28;20081;-73
2023/03/27 08:23:44;;;;;;;8.70;2.47;;;9.30;89.50;;;;;;4985365;28;20026;-75
2023/03/27 08:26:10;;;;;;;7.78;2.25;;;9.40;89.50;;;;;;4988239;28;20472;-74
2023/03/27 08:28:36;;;;;;;12.50;2.70;;;9.30;90.00;;;;;;4989594;28;20030;-74
2023/03/27 08:31:10;;;;;;;8.32;2.90;;;9.40;89.70;;;;;;4985716;28;20105;-74
2023/03/27 08:33:36;;;;;;;11.98;2.97;;;9.60;90.10;;;;;;5002967;28;20801;-75
2023/03/27 08:36:01;;;;;;;8.95;2.10;;;9.80;87.60;;;;;;4989696;28;20053;-73
2023/03/27 08:38:32;;;;;;;6.40;1.40;;;10.00;89.40;;;;;;4987339;28;20034;-74
2023/03/27 08:40:58;;;;;;;;;;;10.10;89.50;;;;;;4986794;28;20653;-74
2023/03/27 08:43:28;;;;;;;9.45;1.95;;;10.20;86.00;;;;;;4985589;28;20320;-74
2023/03/27 08:46:00;;;;;;;;;;;10.20;88.00;;;;;;4988103;28;20026;-75
2023/03/27 08:49:05;;;;;;;4.90;1.20;;;10.10;89.70;;;;;;4985134;28;19916;-75
2023/03/27 08:51:38;;;;;;;9.68;1.58;;;10.00;92.20;;;;;;4987526;28;20110;-75
2023/03/27 08:54:16;;;;;;;2.67;0.65;;;9.80;95.30;;;;;;4983849;28;20088;-75
2023/03/27 08:56:41;;;;;;;3.65;0.82;;;9.40;93.70;;;;;;4991207;28;20417;-76
2023/03/27 08:59:20;;;;;;;3.90;0.77;;;9.00;91.40;;;;;;4987759;28;20033;-75
2023/03/27 09:02:07;;;;;;;1.50;0.60;;;8.70;91.80;;;;;;4985107;28;20015;-75
2023/03/27 09:04:35;;;;;;;2.05;0.90;;;8.50;91.50;;;;;;4985885;28;20030;-75
2023/03/27 09:07:11;;;;;;;3.35;0.75;;;8.70;94.50;;;;;;4988942;28;20030;-73
2023/03/27 09:09:58;;;;;;;2.30;0.80;;;8.90;94.10;;;;;;4985469;28;20031;-76
2023/03/27 09:12:45;;;;;;;3.78;0.80;;;9.10;92.70;;;;;;4989615;28;20034;-76
2023/03/27 09:15:24;;;;;;;3.17;0.90;;;9.30;92.60;;;;;;4989156;28;20552;-75
2023/03/27 09:18:01;;;;;;;3.00;0.90;;;9.70;94.30;;;;;;4986337;28;20054;-76
2023/03/27 09:20:35;;;;;;;6.05;1.25;;;9.80;92.10;;;;;;4989653;28;20312;-76
2023/03/27 09:23:12;;;;;;;6.13;1.30;;;10.20;94.50;;;;;;4988542;28;20096;-76
2023/03/27 09:25:45;;;;;;;4.22;1.10;;;10.40;91.80;;;;;;4988874;28;20103;-75
2023/03/27 09:28:34;;;;;;;2.65;0.90;;;10.70;91.50;;;;;;4986184;28;20023;-75
2023/03/27 09:31:16;;;;;;;6.85;1.00;;;10.90;88.80;;;;;;4990887;28;20402;-76
2023/03/27 09:33:43;;;;;;;3.63;0.82;;;11.10;88.00;;;;;;4987389;28;20023;-76
2023/03/27 09:36:09;;;;;;;4.47;0.82;;;11.20;90.20;;;;;;4990590;28;20128;-75
2023/03/27 09:38:38;;;;;;;4.22;1.00;;;11.40;87.90;;;;;;4989388;28;20388;-76
2023/03/27 09:41:10;;;;;;;6.15;1.00;;;11.50;83.10;;;;;;4988114;28;20022;-76
2023/03/27 09:43:50;;;;;;;5.40;1.10;;;11.60;83.90;;;;;;4985956;28;20030;-77
2023/03/27 09:46:18;;;;;;;7.20;1.77;;;11.70;85.10;;;;;;4997595;28;20473;-74
2023/03/27 09:49:03;;;;;;;5.45;1.30;;;11.50;89.70;;;;;;4985448;28;20022;-74
2023/03/27 09:51:43;;;;;;;4.60;1.08;;;11.30;87.60;;;;;;4989925;28;20041;-75
2023/03/27 09:54:16;;;;;;;9.88;3.03;;;11.00;84.30;;;;;;4987085;28;20054;-76
2023/03/27 09:56:57;;;;;;;8.95;1.30;;;11.10;90.80;;;;;;4986597;28;20554;-76
2023/03/27 09:59:37;;;;;;;11.98;3.90;;;11.10;76.50;;;;;;4987569;28;20026;-75
2023/03/27 10:02:29;;;;;;;8.25;1.73;;;11.50;92.10;;;;;;4987902;28;20113;-75
2023/03/27 10:05:15;;;;;;;4.65;1.60;;;11.90;93.70;;;;;;4987641;28;20041;-71
2023/03/27 10:07:42;;;;;;;10.30;1.65;;;11.80;93.90;;;;;;4983836;28;20026;-74
2023/03/27 10:10:18;;;;;;;4.85;1.30;;;11.50;96.70;;;;;;4986199;28;20105;-75
2023/03/27 10:12:57;;;;;;;6.10;1.38;;;11.10;94.90;;;;;;4986339;28;20057;-74
2023/03/27 10:15:30;;;;;;;4.25;1.05;;;10.70;93.20;;;;;;4986577;28;20037;-74
2023/03/27 10:17:59;;;;;;;7.22;1.13;;;10.60;93.70;;;;;;4988248;28;20084;-75
2023/03/27 10:20:25;;;;;;;5.20;1.17;;;10.40;92.90;;;;;;4988771;28;20026;-74
2023/03/27 10:22:55;;;;;;;4.63;1.10;;;10.10;89.30;;;;;;4986798;28;20033;-73
2023/03/27 10:25:29;;;;;;;2.50;0.80;;;10.20;89.60;;;;;;4985176;28;20500;-75
2023/03/27 10:28:06;;;;;;;13.80;1.98;;;10.40;88.90;;;;;;4986492;28;20085;-74
2023/03/27 10:30:34;;;;;;;6.57;1.15;;;10.70;87.00;;;;;;4984792;28;20022;-74
2023/03/27 10:33:01;;;;;;;5.18;1.20;;;10.90;84.70;;;;;;4984863;28;20026;-73
2023/03/27 10:35:34;;;;;;;3.47;0.98;;;11.20;85.90;;;;;;4983089;28;20141;-73
2023/03/27 10:38:02;;;;;;;8.52;1.52;;;11.50;90.00;;;;;;4982749;28;20034;-74
2023/03/27 10:40:31;;;;;;;2.72;0.98;;;11.70;87.30;;;;;;4983547;28;20026;-72
2023/03/27 10:43:05;;;;;;;4.40;1.40;;;12.00;78.70;;;;;;4985250;28;20109;-74
2023/03/27 10:45:38;;;;;;;6.70;1.35;;;12.10;76.00;;;;;;4987756;28;20305;-73
2023/03/27 10:48:06;;;;;;;5.80;1.45;;;12.30;77.00;;;;;;4990103;28;20524;-74
2023/03/27 10:50:51;;;;;;;2.85;0.98;;;12.40;71.20;;;;;;4987117;28;20024;-73
2023/03/27 10:53:28;;;;;;;7.50;1.92;;;12.60;78.70;;;;;;4983477;28;20019;-75
2023/03/27 10:56:18;;;;;;;6.97;3.58;;;12.90;78.90;;;;;;4986821;28;20034;-74
2023/03/27 10:59:03;;;;;;;7.30;1.60;;;13.20;77.20;;;;;;4983837;28;20031;-73
2023/03/27 11:01:33;;;;;;;5.70;1.35;;;13.30;82.80;;;;;;4984079;28;20025;-73
2023/03/27 11:04:37;;;;;;;4.43;1.10;;;13.20;85.40;;;;;;4985657;28;20034;-76
2023/03/27 11:07:10;;;;;;;5.47;1.00;;;13.20;91.80;;;;;;4980704;28;20077;-73
2023/03/27 11:09:56;;;;;;;3.70;1.00;;;13.40;88.30;;;;;;4985631;28;20027;-76
2023/03/27 11:12:24;;;;;;;3.25;0.80;;;13.50;82.20;;;;;;4985290;28;20022;-75
2023/03/27 11:14:55;;;;;;;5.28;1.17;;;13.60;79.20;;;;;;4985276;28;20050;-74
2023/03/27 11:17:28;;;;;;;4.50;1.10;;;13.50;80.00;;;;;;4987068;28;20060;-74
2023/03/27 11:20:05;;;;;;;4.22;1.10;;;13.70;82.80;;;;;;4984383;28;20089;-74
2023/03/27 11:22:41;;;;;;;3.90;1.73;;;13.70;87.50;;;;;;4988124;28;20088;-75
2023/03/27 11:25:13;;;;;;;9.27;4.00;;;13.90;92.20;;;;;;4989024;28;20040;-75
2023/03/27 11:28:20;;;;;;;9.15;2.53;;;13.90;92.20;;;;;;4986830;28;20023;-74
2023/03/27 11:31:30;;;;;;;5.38;1.30;;;13.60;84.40;;;;;;4982381;28;20037;-75
2023/03/27 11:34:28;;;;;;;5.53;1.15;;;13.60;88.10;;;;;;4985736;28;20110;-78
2023/03/27 11:37:07;;;;;;;4.82;1.17;;;13.80;86.50;;;;;;4983686;28;20046;-74
2023/03/27 11:39:41;;;;;;;8.05;1.50;;;13.60;79.30;;;;;;4988378;28;20031;-73
2023/03/27 11:42:17;;;;;;;4.47;0.95;;;13.90;90.80;;;;;;4985559;28;20026;-75
2023/03/27 11:44:44;;;;;;;4.43;1.00;;;13.80;70.60;;;;;;4982642;28;20123;-74
2023/03/27 11:47:23;;;;;;;9.85;3.65;;;13.70;90.40;;;;;;4987771;28;20037;-75
2023/03/27 11:49:55;;;;;;;11.53;4.43;;;13.50;89.10;;;;;;4989013;28;20068;-73
2023/03/27 11:52:33;;;;;;;6.20;1.73;;;13.40;91.40;;;;;;4989750;28;20029;-74
2023/03/27 11:55:34;;;;;;;8.43;2.65;;;13.10;92.30;;;;;;4987996;28;20030;-74
2023/03/27 11:58:27;;;;;;;6.68;2.00;;;12.60;91.20;;;;;;4994793;28;20042;-74
2023/03/27 12:01:08;;;;;;;7.25;2.92;;;12.30;92.50;;;;;;4985032;28;20481;-75
2023/03/27 12:03:53;;;;;;;6.57;2.28;;;12.30;93.40;;;;;;4989547;28;20130;-75
2023/03/27 12:06:46;;;;;;;11.70;2.47;;;12.50;93.90;;;;;;4988520;28;20066;-74
2023/03/27 12:09:17;;;;;;;10.10;2.35;;;12.80;94.80;;;;;;4969745;28;20027;-75
2023/03/27 12:12:02;;;;;;;4.93;1.23;;;13.10;94.80;;;;;;4998351;28;20034;-74
2023/03/27 12:15:06;;;;;;;3.38;1.05;;;13.10;93.40;;;;;;4989088;28;20069;-75
2023/03/27 12:17:57;;;;;;;10.23;2.10;;;12.80;90.80;;;;;;4988170;28;20132;-75
2023/03/27 12:21:04;;;;;;;9.00;1.70;;;12.70;90.60;;;;;;4986107;28;20169;-74
2023/03/27 12:23:41;;;;;;;4.68;1.40;;;12.90;86.80;;;;;;4986605;28;20034;-73
2023/03/27 12:26:24;;;;;;;5.47;1.30;;;13.00;76.40;;;;;;4984792;28;20101;-74
2023/03/27 12:28:57;;;;;;;8.85;2.45;;;13.00;81.50;;;;;;4984033;28;20118;-74
2023/03/27 12:31:47;;;;;;;9.63;2.75;;;13.10;77.40;;;;;;4986415;28;20038;-74
2023/03/27 12:34:49;;;;;;;4.47;1.35;;;13.40;79.10;;;;;;4988057;28;20477;-74
2023/03/27 12:37:18;;;;;;;6.68;1.77;;;13.40;68.40;;;;;;4984402;28;20030;-73
2023/03/27 12:39:57;;;;;;;6.82;2.28;;;13.30;66.40;;;;;;4987694;28;20080;-73
2023/03/27 12:42:40;;;;;;;6.13;1.30;;;13.00;70.30;;;;;;4986128;28;20027;-73
2023/03/27 12:45:27;;;;;;;5.88;1.25;;;13.10;73.80;;;;;;4988485;28;20035;-74
2023/03/27 12:48:11;;;;;;;3.40;0.82;;;13.20;69.30;;;;;;4987875;28;20031;-73
2023/03/27 12:50:50;;;;;;;4.75;1.63;;;13.30;66.20;;;;;;4975439;28;20023;-74
2023/03/27 12:53:27;;;;;;;8.45;2.00;;;13.30;64.00;;;;;;4990737;28;20035;-73
2023/03/27 12:56:15;;;;;;;4.68;1.48;;;13.50;65.80;;;;;;4992450;28;20160;-73
2023/03/27 12:58:50;;;;;;;7.75;1.40;;;13.60;76.60;;;;;;4992427;28;20026;-75
2023/03/27 13:01:41;;;;;;;3.70;1.25;;;13.90;83.70;;;;;;4992605;28;20448;-74
2023/03/27 13:04:15;;;;;;;5.47;1.75;;;14.00;72.70;;;;;;4983364;28;20535;-74
2023/03/27 13:06:54;;;;;;;6.43;1.85;;;13.90;70.00;;;;;;4992815;28;20401;-74
2023/03/27 13:09:43;;;;;;;9.70;3.00;;;13.60;69.20;;;;;;4986755;28;20648;-74
2023/03/27 13:12:36;;;;;;;7.50;1.15;;;13.40;75.00;;;;;;4991160;28;20416;-74
2023/03/27 13:15:18;;;;;;;3.30;0.93;;;13.10;80.40;;;;;;4985989;28;20038;-74
2023/03/27 13:17:44;;;;;;;4.85;1.17;;;12.70;75.20;;;;;;4988280;28;20048;-73
2023/03/27 13:20:58;;;;;;;7.43;1.60;;;12.40;85.90;;;;;;4992931;28;20026;-73
2023/03/27 13:23:35;;;;;;;8.20;1.30;;;12.60;87.70;;;;;;4946182;28;20059;-73